sensor_id;sensor_type;location;lat;lon;timestamp;P1;durP1;ratioP1;P2;durP2;ratioP2
22939;SDS011;11636;52.086;5.090;2023-07-13T00:01:13;7.25;;;1.98;;
22939;SDS011;11636;52.086;5.090;2023-07-13T00:04:09;9.18;;;1.98;;
22939;SDS011;11636;52.086;5.090;2023-07-13T00:07:03;6.60;;;1.92;;
22939;SDS011;11636;52.086;5.090;2023-07-13T00:09:57;10.20;;;2.42;;
22939;SDS011;11636;52.086;5.090;2023-07-13T00:12:45;6.47;;;1.73;;
22939;SDS011;11636;52.086;5.090;2023-07-13T00:15:40;6.10;;;1.55;;
22939;SDS011;11636;52.086;5.090;2023-07-13T00:18:27;6.78;;;2.00;;
22939;SDS011;11636;52.086;5.090;2023-07-13T00:21:23;6.85;;;2.00;;
22939;SDS011;11636;52.086;5.090;2023-07-13T00:24:10;8.35;;;2.05;;
22939;SDS011;11636;52.086;5.090;2023-07-13T00:27:09;4.90;;;1.48;;
22939;SDS011;11636;52.086;5.090;2023-07-13T00:29:56;8.32;;;2.50;;
22939;SDS011;11636;52.086;5.090;2023-07-13T00:32:50;5.47;;;1.63;;
22939;SDS011;11636;52.086;5.090;2023-07-13T00:35:54;5.72;;;1.58;;
22939;SDS011;11636;52.086;5.090;2023-07-13T00:38:49;5.38;;;1.67;;
22939;SDS011;11636;52.086;5.090;2023-07-13T00:41:36;8.98;;;2.22;;
22939;SDS011;11636;52.086;5.090;2023-07-13T00:44:30;5.32;;;1.50;;
22939;SDS011;11636;52.086;5.090;2023-07-13T00:47:17;4.65;;;1.75;;
22939;SDS011;11636;52.086;5.090;2023-07-13T00:50:12;4.47;;;1.60;;
22939;SDS011;11636;52.086;5.090;2023-07-13T00:53:02;6.43;;;1.75;;
22939;SDS011;11636;52.086;5.090;2023-07-13T00:55:56;4.32;;;1.70;;
22939;SDS011;11636;52.086;5.090;2023-07-13T00:58:44;6.00;;;1.85;;
22939;SDS011;11636;52.086;5.090;2023-07-13T01:01:38;6.45;;;2.47;;
22939;SDS011;11636;52.086;5.090;2023-07-13T01:04:25;5.55;;;2.00;;
22939;SDS011;11636;52.086;5.090;2023-07-13T01:07:19;6.65;;;1.65;;
22939;SDS011;11636;52.086;5.090;2023-07-13T01:10:13;7.32;;;2.10;;
22939;SDS011;11636;52.086;5.090;2023-07-13T01:13:07;5.88;;;1.75;;
22939;SDS011;11636;52.086;5.090;2023-07-13T01:16:03;6.25;;;2.00;;
22939;SDS011;11636;52.086;5.090;2023-07-13T01:19:00;6.78;;;1.98;;
22939;SDS011;11636;52.086;5.090;2023-07-13T01:21:56;6.30;;;1.80;;
22939;SDS011;11636;52.086;5.090;2023-07-13T01:24:44;10.43;;;2.55;;
22939;SDS011;11636;52.086;5.090;2023-07-13T01:27:41;7.45;;;2.05;;
22939;SDS011;11636;52.086;5.090;2023-07-13T01:30:28;13.23;;;2.80;;
22939;SDS011;11636;52.086;5.090;2023-07-13T01:33:22;8.13;;;2.45;;
22939;SDS011;11636;52.086;5.090;2023-07-13T01:36:16;6.72;;;1.88;;
22939;SDS011;11636;52.086;5.090;2023-07-13T01:39:10;7.95;;;2.13;;
22939;SDS011;11636;52.086;5.090;2023-07-13T01:41:57;9.57;;;2.50;;
22939;SDS011;11636;52.086;5.090;2023-07-13T01:44:51;9.68;;;2.05;;
22939;SDS011;11636;52.086;5.090;2023-07-13T01:47:38;6.68;;;2.28;;
22939;SDS011;11636;52.086;5.090;2023-07-13T01:50:32;6.47;;;2.30;;
22939;SDS011;11636;52.086;5.090;2023-07-13T01:53:27;5.93;;;1.38;;
22939;SDS011;11636;52.086;5.090;2023-07-13T01:56:21;7.88;;;2.10;;
22939;SDS011;11636;52.086;5.090;2023-07-13T01:59:08;7.07;;;2.22;;
22939;SDS011;11636;52.086;5.090;2023-07-13T02:02:02;6.63;;;1.73;;
22939;SDS011;11636;52.086;5.090;2023-07-13T02:04:56;8.05;;;2.33;;
22939;SDS011;11636;52.086;5.090;2023-07-13T02:07:43;9.98;;;2.30;;
22939;SDS011;11636;52.086;5.090;2023-07-13T02:10:37;8.90;;;2.50;;
22939;SDS011;11636;52.086;5.090;2023-07-13T02:13:24;7.93;;;2.63;;
22939;SDS011;11636;52.086;5.090;2023-07-13T02:16:18;8.52;;;2.22;;
22939;SDS011;11636;52.086;5.090;2023-07-13T02:19:05;7.90;;;2.17;;
22939;SDS011;11636;52.086;5.090;2023-07-13T02:21:59;7.63;;;2.45;;
22939;SDS011;11636;52.086;5.090;2023-07-13T02:24:53;8.10;;;2.90;;
22939;SDS011;11636;52.086;5.090;2023-07-13T02:27:40;7.72;;;2.60;;
22939;SDS011;11636;52.086;5.090;2023-07-13T02:30:34;12.63;;;3.35;;
22939;SDS011;11636;52.086;5.090;2023-07-13T02:33:28;6.65;;;2.60;;
22939;SDS011;11636;52.086;5.090;2023-07-13T02:36:15;6.65;;;2.58;;
22939;SDS011;11636;52.086;5.090;2023-07-13T02:39:09;8.43;;;2.72;;
22939;SDS011;11636;52.086;5.090;2023-07-13T02:41:59;7.35;;;2.60;;
22939;SDS011;11636;52.086;5.090;2023-07-13T02:44:59;8.80;;;2.92;;
22939;SDS011;11636;52.086;5.090;2023-07-13T02:47:53;10.40;;;3.03;;
22939;SDS011;11636;52.086;5.090;2023-07-13T02:50:47;9.13;;;2.67;;
22939;SDS011;11636;52.086;5.090;2023-07-13T02:53:34;10.45;;;2.95;;
22939;SDS011;11636;52.086;5.090;2023-07-13T02:56:29;11.63;;;2.85;;
22939;SDS011;11636;52.086;5.090;2023-07-13T02:59:18;8.38;;;2.58;;
22939;SDS011;11636;52.086;5.090;2023-07-13T03:02:11;8.20;;;2.05;;
22939;SDS011;11636;52.086;5.090;2023-07-13T03:05:05;9.32;;;3.15;;
22939;SDS011;11636;52.086;5.090;2023-07-13T03:07:59;7.57;;;2.78;;
22939;SDS011;11636;52.086;5.090;2023-07-13T03:10:46;6.45;;;2.05;;
22939;SDS011;11636;52.086;5.090;2023-07-13T03:13:40;7.05;;;2.30;;
22939;SDS011;11636;52.086;5.090;2023-07-13T03:16:28;8.38;;;2.25;;
22939;SDS011;11636;52.086;5.090;2023-07-13T03:19:22;8.07;;;2.58;;
22939;SDS011;11636;52.086;5.090;2023-07-13T03:22:17;6.45;;;2.20;;
22939;SDS011;11636;52.086;5.090;2023-07-13T03:25:05;6.68;;;2.15;;
22939;SDS011;11636;52.086;5.090;2023-07-13T03:27:59;5.28;;;1.95;;
22939;SDS011;11636;52.086;5.090;2023-07-13T03:30:46;6.65;;;2.25;;
22939;SDS011;11636;52.086;5.090;2023-07-13T03:33:40;7.13;;;2.22;;
22939;SDS011;11636;52.086;5.090;2023-07-13T03:36:28;8.20;;;2.13;;
22939;SDS011;11636;52.086;5.090;2023-07-13T03:39:23;6.72;;;2.25;;
22939;SDS011;11636;52.086;5.090;2023-07-13T03:42:10;9.10;;;2.80;;
22939;SDS011;11636;52.086;5.090;2023-07-13T03:45:04;7.28;;;2.00;;
22939;SDS011;11636;52.086;5.090;2023-07-13T03:47:52;7.63;;;2.15;;
22939;SDS011;11636;52.086;5.090;2023-07-13T03:50:46;7.50;;;2.50;;
22939;SDS011;11636;52.086;5.090;2023-07-13T03:53:37;9.48;;;3.15;;
22939;SDS011;11636;52.086;5.090;2023-07-13T03:56:32;7.15;;;2.72;;
22939;SDS011;11636;52.086;5.090;2023-07-13T03:59:26;7.13;;;2.20;;
22939;SDS011;11636;52.086;5.090;2023-07-13T04:02:14;7.38;;;2.78;;
22939;SDS011;11636;52.086;5.090;2023-07-13T04:05:07;9.18;;;3.35;;
22939;SDS011;11636;52.086;5.090;2023-07-13T04:07:54;10.52;;;3.10;;
22939;SDS011;11636;52.086;5.090;2023-07-13T04:10:48;11.98;;;4.38;;
22939;SDS011;11636;52.086;5.090;2023-07-13T04:13:42;11.82;;;3.97;;
22939;SDS011;11636;52.086;5.090;2023-07-13T04:16:36;8.20;;;3.00;;
22939;SDS011;11636;52.086;5.090;2023-07-13T04:19:23;9.65;;;3.05;;
22939;SDS011;11636;52.086;5.090;2023-07-13T04:22:17;13.30;;;3.58;;
22939;SDS011;11636;52.086;5.090;2023-07-13T04:25:11;10.88;;;3.50;;
22939;SDS011;11636;52.086;5.090;2023-07-13T04:28:05;9.60;;;3.47;;
22939;SDS011;11636;52.086;5.090;2023-07-13T04:30:52;12.68;;;4.28;;
22939;SDS011;11636;52.086;5.090;2023-07-13T04:33:46;16.20;;;4.30;;
22939;SDS011;11636;52.086;5.090;2023-07-13T04:36:41;9.88;;;3.55;;
22939;SDS011;11636;52.086;5.090;2023-07-13T04:39:35;11.70;;;3.67;;
22939;SDS011;11636;52.086;5.090;2023-07-13T04:42:23;9.75;;;3.30;;
22939;SDS011;11636;52.086;5.090;2023-07-13T04:45:17;12.07;;;4.30;;
22939;SDS011;11636;52.086;5.090;2023-07-13T04:48:11;16.33;;;5.07;;
22939;SDS011;11636;52.086;5.090;2023-07-13T04:51:05;13.10;;;4.30;;
22939;SDS011;11636;52.086;5.090;2023-07-13T04:53:52;13.10;;;4.30;;
22939;SDS011;11636;52.086;5.090;2023-07-13T04:56:47;13.65;;;4.25;;
22939;SDS011;11636;52.086;5.090;2023-07-13T04:59:34;12.40;;;3.90;;
22939;SDS011;11636;52.086;5.090;2023-07-13T05:02:28;9.60;;;3.85;;
22939;SDS011;11636;52.086;5.090;2023-07-13T05:05:17;14.25;;;4.32;;
22939;SDS011;11636;52.086;5.090;2023-07-13T05:08:11;13.93;;;4.25;;
22939;SDS011;11636;52.086;5.090;2023-07-13T05:11:02;16.88;;;5.10;;
22939;SDS011;11636;52.086;5.090;2023-07-13T05:13:56;16.27;;;4.80;;
22939;SDS011;11636;52.086;5.090;2023-07-13T05:16:50;15.48;;;4.50;;
22939;SDS011;11636;52.086;5.090;2023-07-13T05:19:44;15.18;;;4.85;;
22939;SDS011;11636;52.086;5.090;2023-07-13T05:22:31;13.90;;;4.80;;
22939;SDS011;11636;52.086;5.090;2023-07-13T05:25:25;11.95;;;3.78;;
22939;SDS011;11636;52.086;5.090;2023-07-13T05:28:19;16.58;;;4.88;;
22939;SDS011;11636;52.086;5.090;2023-07-13T05:31:14;14.95;;;4.25;;
22939;SDS011;11636;52.086;5.090;2023-07-13T05:34:08;10.85;;;4.15;;
22939;SDS011;11636;52.086;5.090;2023-07-13T05:36:56;14.57;;;4.90;;
22939;SDS011;11636;52.086;5.090;2023-07-13T05:39:49;16.23;;;4.57;;
22939;SDS011;11636;52.086;5.090;2023-07-13T05:42:36;16.23;;;5.25;;
22939;SDS011;11636;52.086;5.090;2023-07-13T05:45:30;16.48;;;5.05;;
22939;SDS011;11636;52.086;5.090;2023-07-13T05:48:17;14.38;;;4.90;;
22939;SDS011;11636;52.086;5.090;2023-07-13T05:51:11;13.23;;;4.97;;
22939;SDS011;11636;52.086;5.090;2023-07-13T05:54:05;14.85;;;5.15;;
22939;SDS011;11636;52.086;5.090;2023-07-13T05:56:59;12.45;;;4.28;;
22939;SDS011;11636;52.086;5.090;2023-07-13T05:59:47;15.45;;;5.88;;
22939;SDS011;11636;52.086;5.090;2023-07-13T06:02:40;18.40;;;5.80;;
22939;SDS011;11636;52.086;5.090;2023-07-13T06:05:35;13.48;;;4.90;;
22939;SDS011;11636;52.086;5.090;2023-07-13T06:08:29;9.30;;;4.00;;
22939;SDS011;11636;52.086;5.090;2023-07-13T06:11:24;15.25;;;5.57;;
22939;SDS011;11636;52.086;5.090;2023-07-13T06:14:12;20.15;;;5.90;;
22939;SDS011;11636;52.086;5.090;2023-07-13T06:17:07;16.30;;;5.53;;
22939;SDS011;11636;52.086;5.090;2023-07-13T06:19:54;14.75;;;4.97;;
22939;SDS011;11636;52.086;5.090;2023-07-13T06:22:48;15.07;;;5.22;;
22939;SDS011;11636;52.086;5.090;2023-07-13T06:25:35;15.13;;;5.35;;
22939;SDS011;11636;52.086;5.090;2023-07-13T06:28:29;9.02;;;4.30;;
22939;SDS011;11636;52.086;5.090;2023-07-13T06:31:24;9.23;;;3.70;;
22939;SDS011;11636;52.086;5.090;2023-07-13T06:34:18;19.80;;;7.20;;
22939;SDS011;11636;52.086;5.090;2023-07-13T06:37:06;14.63;;;6.20;;
22939;SDS011;11636;52.086;5.090;2023-07-13T06:40:00;10.45;;;4.75;;
22939;SDS011;11636;52.086;5.090;2023-07-13T06:42:47;14.23;;;5.25;;
22939;SDS011;11636;52.086;5.090;2023-07-13T06:45:43;17.70;;;7.22;;
22939;SDS011;11636;52.086;5.090;2023-07-13T06:48:42;14.57;;;6.22;;
22939;SDS011;11636;52.086;5.090;2023-07-13T06:51:36;19.38;;;7.60;;
22939;SDS011;11636;52.086;5.090;2023-07-13T06:54:24;15.52;;;6.68;;
22939;SDS011;11636;52.086;5.090;2023-07-13T06:57:17;22.90;;;8.40;;
22939;SDS011;11636;52.086;5.090;2023-07-13T07:00:04;14.23;;;6.70;;
22939;SDS011;11636;52.086;5.090;2023-07-13T07:02:59;14.60;;;6.10;;
22939;SDS011;11636;52.086;5.090;2023-07-13T07:05:54;12.65;;;5.53;;
22939;SDS011;11636;52.086;5.090;2023-07-13T07:08:46;9.70;;;4.30;;
22939;SDS011;11636;52.086;5.090;2023-07-13T07:11:40;9.02;;;4.30;;
22939;SDS011;11636;52.086;5.090;2023-07-13T07:14:49;10.70;;;4.70;;
22939;SDS011;11636;52.086;5.090;2023-07-13T07:17:43;13.45;;;5.85;;
22939;SDS011;11636;52.086;5.090;2023-07-13T07:20:37;14.13;;;5.90;;
22939;SDS011;11636;52.086;5.090;2023-07-13T07:23:25;13.75;;;6.13;;
22939;SDS011;11636;52.086;5.090;2023-07-13T07:26:19;9.48;;;5.05;;
22939;SDS011;11636;52.086;5.090;2023-07-13T07:29:18;10.25;;;4.85;;
22939;SDS011;11636;52.086;5.090;2023-07-13T07:32:08;9.00;;;4.97;;
22939;SDS011;11636;52.086;5.090;2023-07-13T07:35:21;9.00;;;4.80;;
22939;SDS011;11636;52.086;5.090;2023-07-13T07:38:08;10.48;;;5.53;;
22939;SDS011;11636;52.086;5.090;2023-07-13T07:41:03;10.55;;;5.97;;
22939;SDS011;11636;52.086;5.090;2023-07-13T07:43:54;12.30;;;6.07;;
22939;SDS011;11636;52.086;5.090;2023-07-13T07:46:47;12.90;;;6.95;;
22939;SDS011;11636;52.086;5.090;2023-07-13T07:49:36;22.30;;;9.60;;
22939;SDS011;11636;52.086;5.090;2023-07-13T07:52:29;15.70;;;7.97;;
22939;SDS011;11636;52.086;5.090;2023-07-13T07:55:18;20.70;;;8.80;;
22939;SDS011;11636;52.086;5.090;2023-07-13T07:58:21;20.38;;;9.10;;
22939;SDS011;11636;52.086;5.090;2023-07-13T08:01:11;15.07;;;8.05;;
22939;SDS011;11636;52.086;5.090;2023-07-13T08:04:07;15.52;;;7.78;;
22939;SDS011;11636;52.086;5.090;2023-07-13T08:07:22;15.10;;;6.20;;
22939;SDS011;11636;52.086;5.090;2023-07-13T08:10:16;12.48;;;5.45;;
22939;SDS011;11636;52.086;5.090;2023-07-13T08:13:10;8.63;;;4.10;;
22939;SDS011;11636;52.086;5.090;2023-07-13T08:16:05;9.18;;;3.40;;
22939;SDS011;11636;52.086;5.090;2023-07-13T08:18:59;6.22;;;2.70;;
22939;SDS011;11636;52.086;5.090;2023-07-13T08:21:52;6.63;;;2.72;;
22939;SDS011;11636;52.086;5.090;2023-07-13T08:24:40;7.78;;;2.95;;
22939;SDS011;11636;52.086;5.090;2023-07-13T08:27:35;7.20;;;2.72;;
22939;SDS011;11636;52.086;5.090;2023-07-13T08:30:22;4.93;;;2.40;;
22939;SDS011;11636;52.086;5.090;2023-07-13T08:33:17;7.63;;;2.50;;
22939;SDS011;11636;52.086;5.090;2023-07-13T08:36:05;4.82;;;2.65;;
22939;SDS011;11636;52.086;5.090;2023-07-13T08:38:59;8.63;;;2.85;;
22939;SDS011;11636;52.086;5.090;2023-07-13T08:41:47;6.50;;;3.08;;
22939;SDS011;11636;52.086;5.090;2023-07-13T08:48:08;5.47;;;2.53;;
22939;SDS011;11636;52.086;5.090;2023-07-13T08:51:13;6.20;;;3.35;;
22939;SDS011;11636;52.086;5.090;2023-07-13T08:54:12;8.67;;;3.33;;
22939;SDS011;11636;52.086;5.090;2023-07-13T08:57:31;5.78;;;3.13;;
22939;SDS011;11636;52.086;5.090;2023-07-13T09:00:31;8.27;;;3.30;;
22939;SDS011;11636;52.086;5.090;2023-07-13T09:03:37;7.88;;;4.15;;
22939;SDS011;11636;52.086;5.090;2023-07-13T09:13:00;11.48;;;4.50;;
22939;SDS011;11636;52.086;5.090;2023-07-13T09:16:08;8.85;;;3.25;;
22939;SDS011;11636;52.086;5.090;2023-07-13T09:18:59;7.18;;;2.97;;
22939;SDS011;11636;52.086;5.090;2023-07-13T09:21:59;5.33;;;2.70;;
22939;SDS011;11636;52.086;5.090;2023-07-13T09:27:53;8.52;;;3.40;;
22939;SDS011;11636;52.086;5.090;2023-07-13T09:34:29;6.88;;;2.85;;
22939;SDS011;11636;52.086;5.090;2023-07-13T09:37:23;7.35;;;3.05;;
22939;SDS011;11636;52.086;5.090;2023-07-13T09:40:24;6.47;;;3.42;;
22939;SDS011;11636;52.086;5.090;2023-07-13T09:43:23;7.97;;;3.78;;
22939;SDS011;11636;52.086;5.090;2023-07-13T09:46:20;7.60;;;3.55;;
22939;SDS011;11636;52.086;5.090;2023-07-13T09:49:18;8.10;;;3.65;;
22939;SDS011;11636;52.086;5.090;2023-07-13T09:52:10;4.13;;;2.70;;
22939;SDS011;11636;52.086;5.090;2023-07-13T09:55:22;6.93;;;3.30;;
22939;SDS011;11636;52.086;5.090;2023-07-13T09:58:11;8.18;;;3.78;;
22939;SDS011;11636;52.086;5.090;2023-07-13T10:01:07;8.45;;;3.58;;
22939;SDS011;11636;52.086;5.090;2023-07-13T10:04:12;10.02;;;3.78;;
22939;SDS011;11636;52.086;5.090;2023-07-13T10:07:07;9.38;;;4.10;;
22939;SDS011;11636;52.086;5.090;2023-07-13T10:10:17;9.65;;;4.07;;
22939;SDS011;11636;52.086;5.090;2023-07-13T10:13:20;7.20;;;3.42;;
22939;SDS011;11636;52.086;5.090;2023-07-13T10:16:19;8.13;;;3.20;;
22939;SDS011;11636;52.086;5.090;2023-07-13T10:19:18;7.35;;;3.38;;
22939;SDS011;11636;52.086;5.090;2023-07-13T10:22:14;6.63;;;3.30;;
22939;SDS011;11636;52.086;5.090;2023-07-13T10:25:36;10.05;;;3.40;;
22939;SDS011;11636;52.086;5.090;2023-07-13T10:28:35;7.47;;;3.30;;
22939;SDS011;11636;52.086;5.090;2023-07-13T10:31:24;8.43;;;2.72;;
22939;SDS011;11636;52.086;5.090;2023-07-13T10:34:18;5.85;;;2.38;;
22939;SDS011;11636;52.086;5.090;2023-07-13T10:37:31;5.57;;;2.45;;
22939;SDS011;11636;52.086;5.090;2023-07-13T10:40:47;6.53;;;2.40;;
22939;SDS011;11636;52.086;5.090;2023-07-13T10:43:50;6.40;;;2.60;;
22939;SDS011;11636;52.086;5.090;2023-07-13T10:46:46;7.10;;;2.97;;
22939;SDS011;11636;52.086;5.090;2023-07-13T10:49:40;7.15;;;2.67;;
22939;SDS011;11636;52.086;5.090;2023-07-13T10:52:40;7.10;;;3.50;;
22939;SDS011;11636;52.086;5.090;2023-07-13T10:55:40;8.68;;;3.13;;
22939;SDS011;11636;52.086;5.090;2023-07-13T10:58:42;8.57;;;3.20;;
22939;SDS011;11636;52.086;5.090;2023-07-13T11:04:58;7.85;;;3.67;;
22939;SDS011;11636;52.086;5.090;2023-07-13T11:08:04;9.50;;;3.50;;
22939;SDS011;11636;52.086;5.090;2023-07-13T11:20:38;7.40;;;3.20;;
22939;SDS011;11636;52.086;5.090;2023-07-13T11:23:33;8.07;;;3.85;;
22939;SDS011;11636;52.086;5.090;2023-07-13T11:29:37;5.88;;;3.00;;
22939;SDS011;11636;52.086;5.090;2023-07-13T11:32:29;7.85;;;3.30;;
22939;SDS011;11636;52.086;5.090;2023-07-13T11:35:25;5.60;;;2.95;;
22939;SDS011;11636;52.086;5.090;2023-07-13T11:38:16;11.25;;;3.30;;
22939;SDS011;11636;52.086;5.090;2023-07-13T11:41:22;7.88;;;3.20;;
22939;SDS011;11636;52.086;5.090;2023-07-13T11:44:20;7.40;;;3.17;;
22939;SDS011;11636;52.086;5.090;2023-07-13T11:47:11;7.68;;;2.85;;
22939;SDS011;11636;52.086;5.090;2023-07-13T11:50:17;7.72;;;2.92;;
22939;SDS011;11636;52.086;5.090;2023-07-13T11:53:08;6.85;;;3.00;;
22939;SDS011;11636;52.086;5.090;2023-07-13T11:56:03;5.60;;;2.35;;
22939;SDS011;11636;52.086;5.090;2023-07-13T11:58:51;6.93;;;2.97;;
22939;SDS011;11636;52.086;5.090;2023-07-13T12:01:47;6.30;;;2.65;;
22939;SDS011;11636;52.086;5.090;2023-07-13T12:04:45;6.65;;;2.85;;
22939;SDS011;11636;52.086;5.090;2023-07-13T12:07:39;10.10;;;2.63;;
22939;SDS011;11636;52.086;5.090;2023-07-13T12:10:33;5.35;;;2.38;;
22939;SDS011;11636;52.086;5.090;2023-07-13T12:13:20;6.20;;;2.80;;
22939;SDS011;11636;52.086;5.090;2023-07-13T12:16:15;6.38;;;2.47;;
22939;SDS011;11636;52.086;5.090;2023-07-13T12:19:18;6.32;;;2.53;;
22939;SDS011;11636;52.086;5.090;2023-07-13T12:22:16;6.35;;;2.88;;
22939;SDS011;11636;52.086;5.090;2023-07-13T12:25:12;4.95;;;2.30;;
22939;SDS011;11636;52.086;5.090;2023-07-13T12:28:00;7.53;;;2.55;;
22939;SDS011;11636;52.086;5.090;2023-07-13T12:31:29;5.18;;;2.50;;
22939;SDS011;11636;52.086;5.090;2023-07-13T12:34:33;5.55;;;2.30;;
22939;SDS011;11636;52.086;5.090;2023-07-13T12:38:09;5.72;;;2.42;;
22939;SDS011;11636;52.086;5.090;2023-07-13T12:40:57;6.88;;;2.60;;
22939;SDS011;11636;52.086;5.090;2023-07-13T12:43:51;6.68;;;2.90;;
22939;SDS011;11636;52.086;5.090;2023-07-13T12:46:39;4.72;;;2.58;;
22939;SDS011;11636;52.086;5.090;2023-07-13T12:49:33;6.13;;;2.45;;
22939;SDS011;11636;52.086;5.090;2023-07-13T12:52:28;6.45;;;2.50;;
22939;SDS011;11636;52.086;5.090;2023-07-13T12:55:24;7.78;;;2.78;;
22939;SDS011;11636;52.086;5.090;2023-07-13T12:58:21;5.90;;;2.20;;
22939;SDS011;11636;52.086;5.090;2023-07-13T13:01:23;5.30;;;2.92;;
22939;SDS011;11636;52.086;5.090;2023-07-13T13:04:20;5.32;;;2.42;;
22939;SDS011;11636;52.086;5.090;2023-07-13T13:07:08;5.88;;;3.03;;
22939;SDS011;11636;52.086;5.090;2023-07-13T13:10:08;5.00;;;2.70;;
22939;SDS011;11636;52.086;5.090;2023-07-13T13:12:58;5.22;;;2.75;;
22939;SDS011;11636;52.086;5.090;2023-07-13T13:15:52;5.65;;;2.60;;
22939;SDS011;11636;52.086;5.090;2023-07-13T13:18:46;6.28;;;2.97;;
22939;SDS011;11636;52.086;5.090;2023-07-13T13:21:40;4.22;;;2.25;;
22939;SDS011;11636;52.086;5.090;2023-07-13T13:24:29;4.70;;;2.50;;
22939;SDS011;11636;52.086;5.090;2023-07-13T13:27:23;6.85;;;2.92;;
22939;SDS011;11636;52.086;5.090;2023-07-13T13:30:17;6.40;;;2.80;;
22939;SDS011;11636;52.086;5.090;2023-07-13T13:33:04;6.07;;;2.70;;
22939;SDS011;11636;52.086;5.090;2023-07-13T13:36:02;5.72;;;3.08;;
22939;SDS011;11636;52.086;5.090;2023-07-13T13:38:57;5.55;;;2.65;;
22939;SDS011;11636;52.086;5.090;2023-07-13T13:41:45;6.60;;;2.75;;
22939;SDS011;11636;52.086;5.090;2023-07-13T13:44:38;5.82;;;2.55;;
22939;SDS011;11636;52.086;5.090;2023-07-13T13:47:31;6.68;;;2.83;;
22939;SDS011;11636;52.086;5.090;2023-07-13T13:50:29;7.07;;;2.72;;
22939;SDS011;11636;52.086;5.090;2023-07-13T13:53:16;5.18;;;2.40;;
22939;SDS011;11636;52.086;5.090;2023-07-13T13:56:17;5.55;;;2.53;;
22939;SDS011;11636;52.086;5.090;2023-07-13T13:59:06;5.43;;;2.30;;
22939;SDS011;11636;52.086;5.090;2023-07-13T14:02:07;7.13;;;2.70;;
22939;SDS011;11636;52.086;5.090;2023-07-13T14:05:21;7.60;;;2.63;;
22939;SDS011;11636;52.086;5.090;2023-07-13T14:08:19;6.10;;;2.30;;
22939;SDS011;11636;52.086;5.090;2023-07-13T14:11:14;7.07;;;2.42;;
22939;SDS011;11636;52.086;5.090;2023-07-13T14:14:12;5.78;;;2.33;;
22939;SDS011;11636;52.086;5.090;2023-07-13T14:17:02;4.78;;;2.25;;
22939;SDS011;11636;52.086;5.090;2023-07-13T14:20:05;6.13;;;2.40;;
22939;SDS011;11636;52.086;5.090;2023-07-13T14:22:57;5.97;;;2.30;;
22939;SDS011;11636;52.086;5.090;2023-07-13T14:25:51;6.53;;;2.17;;
22939;SDS011;11636;52.086;5.090;2023-07-13T14:28:40;7.38;;;2.70;;
22939;SDS011;11636;52.086;5.090;2023-07-13T14:31:36;6.45;;;2.20;;
22939;SDS011;11636;52.086;5.090;2023-07-13T14:34:23;5.35;;;2.40;;
22939;SDS011;11636;52.086;5.090;2023-07-13T14:37:23;7.78;;;2.53;;
22939;SDS011;11636;52.086;5.090;2023-07-13T14:40:14;6.03;;;2.40;;
22939;SDS011;11636;52.086;5.090;2023-07-13T14:43:14;8.15;;;2.35;;
22939;SDS011;11636;52.086;5.090;2023-07-13T14:46:02;5.45;;;2.20;;
22939;SDS011;11636;52.086;5.090;2023-07-13T14:49:03;4.68;;;2.22;;
22939;SDS011;11636;52.086;5.090;2023-07-13T14:51:54;4.25;;;2.13;;
22939;SDS011;11636;52.086;5.090;2023-07-13T14:54:52;5.70;;;2.33;;
22939;SDS011;11636;52.086;5.090;2023-07-13T14:57:40;5.18;;;2.05;;
22939;SDS011;11636;52.086;5.090;2023-07-13T15:00:34;5.07;;;2.15;;
22939;SDS011;11636;52.086;5.090;2023-07-13T15:03:23;8.30;;;2.25;;
22939;SDS011;11636;52.086;5.090;2023-07-13T15:06:19;5.68;;;2.17;;
22939;SDS011;11636;52.086;5.090;2023-07-13T15:09:08;5.20;;;2.08;;
22939;SDS011;11636;52.086;5.090;2023-07-13T15:12:04;3.70;;;1.63;;
22939;SDS011;11636;52.086;5.090;2023-07-13T15:14:52;6.78;;;2.30;;
22939;SDS011;11636;52.086;5.090;2023-07-13T15:17:46;5.40;;;1.98;;
22939;SDS011;11636;52.086;5.090;2023-07-13T15:20:37;4.72;;;2.03;;
22939;SDS011;11636;52.086;5.090;2023-07-13T15:23:37;6.93;;;2.15;;
22939;SDS011;11636;52.086;5.090;2023-07-13T15:26:27;5.40;;;2.35;;
22939;SDS011;11636;52.086;5.090;2023-07-13T15:29:21;5.22;;;1.92;;
22939;SDS011;11636;52.086;5.090;2023-07-13T15:32:12;4.22;;;1.77;;
22939;SDS011;11636;52.086;5.090;2023-07-13T15:35:13;5.85;;;1.60;;
22939;SDS011;11636;52.086;5.090;2023-07-13T15:38:18;4.93;;;1.90;;
22939;SDS011;11636;52.086;5.090;2023-07-13T15:41:17;4.75;;;1.85;;
22939;SDS011;11636;52.086;5.090;2023-07-13T15:44:24;4.43;;;1.60;;
22939;SDS011;11636;52.086;5.090;2023-07-13T15:47:22;5.47;;;1.92;;
22939;SDS011;11636;52.086;5.090;2023-07-13T15:50:20;4.95;;;1.63;;
22939;SDS011;11636;52.086;5.090;2023-07-13T15:53:10;4.10;;;1.80;;
22939;SDS011;11636;52.086;5.090;2023-07-13T15:56:17;4.63;;;1.48;;
22939;SDS011;11636;52.086;5.090;2023-07-13T15:59:16;5.95;;;1.90;;
22939;SDS011;11636;52.086;5.090;2023-07-13T16:02:11;4.65;;;1.60;;
22939;SDS011;11636;52.086;5.090;2023-07-13T16:05:04;4.30;;;1.48;;
22939;SDS011;11636;52.086;5.090;2023-07-13T16:07:58;4.00;;;1.75;;
22939;SDS011;11636;52.086;5.090;2023-07-13T16:10:53;3.95;;;1.40;;
22939;SDS011;11636;52.086;5.090;2023-07-13T16:13:43;5.65;;;1.77;;
22939;SDS011;11636;52.086;5.090;2023-07-13T16:16:38;3.55;;;1.42;;
22939;SDS011;11636;52.086;5.090;2023-07-13T16:19:26;5.40;;;1.73;;
22939;SDS011;11636;52.086;5.090;2023-07-13T16:22:22;5.03;;;1.80;;
22939;SDS011;11636;52.086;5.090;2023-07-13T16:25:18;4.13;;;1.70;;
22939;SDS011;11636;52.086;5.090;2023-07-13T16:28:13;5.40;;;1.95;;
22939;SDS011;11636;52.086;5.090;2023-07-13T16:31:00;5.32;;;1.85;;
22939;SDS011;11636;52.086;5.090;2023-07-13T16:33:56;4.20;;;1.42;;
22939;SDS011;11636;52.086;5.090;2023-07-13T16:36:52;4.60;;;1.80;;
22939;SDS011;11636;52.086;5.090;2023-07-13T16:39:46;4.40;;;1.85;;
22939;SDS011;11636;52.086;5.090;2023-07-13T16:42:41;4.30;;;1.45;;
22939;SDS011;11636;52.086;5.090;2023-07-13T16:45:29;3.58;;;1.60;;
22939;SDS011;11636;52.086;5.090;2023-07-13T16:48:26;3.55;;;1.40;;
22939;SDS011;11636;52.086;5.090;2023-07-13T16:51:16;3.20;;;1.40;;
22939;SDS011;11636;52.086;5.090;2023-07-13T16:54:10;3.75;;;1.70;;
22939;SDS011;11636;52.086;5.090;2023-07-13T16:56:58;3.85;;;1.30;;
22939;SDS011;11636;52.086;5.090;2023-07-13T16:59:53;4.03;;;1.65;;
22939;SDS011;11636;52.086;5.090;2023-07-13T17:02:48;2.65;;;1.48;;
22939;SDS011;11636;52.086;5.090;2023-07-13T17:05:38;3.72;;;1.70;;
22939;SDS011;11636;52.086;5.090;2023-07-13T17:08:33;7.40;;;2.20;;
22939;SDS011;11636;52.086;5.090;2023-07-13T17:11:28;5.25;;;2.08;;
22939;SDS011;11636;52.086;5.090;2023-07-13T17:14:20;4.82;;;1.95;;
22939;SDS011;11636;52.086;5.090;2023-07-13T17:17:16;6.57;;;2.25;;
22939;SDS011;11636;52.086;5.090;2023-07-13T17:20:05;4.38;;;2.17;;
22939;SDS011;11636;52.086;5.090;2023-07-13T17:23:26;6.10;;;2.22;;
22939;SDS011;11636;52.086;5.090;2023-07-13T17:26:13;6.15;;;2.10;;
22939;SDS011;11636;52.086;5.090;2023-07-13T17:29:07;5.55;;;2.00;;
22939;SDS011;11636;52.086;5.090;2023-07-13T17:32:03;6.25;;;2.22;;
22939;SDS011;11636;52.086;5.090;2023-07-13T17:34:54;6.60;;;2.17;;
22939;SDS011;11636;52.086;5.090;2023-07-13T17:37:49;4.35;;;2.00;;
22939;SDS011;11636;52.086;5.090;2023-07-13T17:40:50;6.53;;;2.15;;
22939;SDS011;11636;52.086;5.090;2023-07-13T17:43:37;5.03;;;2.38;;
22939;SDS011;11636;52.086;5.090;2023-07-13T17:46:31;5.82;;;2.30;;
22939;SDS011;11636;52.086;5.090;2023-07-13T17:49:22;5.03;;;1.90;;
22939;SDS011;11636;52.086;5.090;2023-07-13T17:52:24;6.68;;;2.60;;
22939;SDS011;11636;52.086;5.090;2023-07-13T17:55:21;6.07;;;1.88;;
22939;SDS011;11636;52.086;5.090;2023-07-13T17:58:09;5.03;;;2.15;;
22939;SDS011;11636;52.086;5.090;2023-07-13T18:01:04;5.75;;;1.65;;